Time;durP1;ratioP1;P1;durP2;ratioP2;P2;SDS_P1;SDS_P2;PMS_P1;PMS_P2;Temp;Humidity;BMP_temperature;BMP_pressure;BME280_temperature;BME280_humidity;BME280_pressure;Samples;Min_cycle;Max_cycle;Signal;HPM_P1;HPM_P2
2021/07/17 00:00:18;;;;;;;13.52;10.30;;;;;;;19.70;94.24;94551.31;5067466;28;20656;-66
2021/07/17 00:02:45;;;;;;;13.00;10.65;;;;;;;19.67;95.13;94545.53;5067447;28;20044;-66
2021/07/17 00:05:14;;;;;;;15.00;9.70;;;;;;;19.60;95.48;94542.50;5069340;28;20097;-66
2021/07/17 00:07:43;;;;;;;13.70;9.70;;;;;;;19.49;95.93;94533.22;5066476;28;20055;-66
2021/07/17 00:10:10;;;;;;;12.60;9.13;;;;;;;19.49;96.57;94538.50;5068885;28;20048;-66
2021/07/17 00:12:37;;;;;;;12.93;9.13;;;;;;;19.44;97.39;94549.16;5068683;28;20383;-66
2021/07/17 00:15:05;;;;;;;20.35;9.85;;;;;;;19.39;97.90;94543.97;5068681;28;20040;-66
2021/07/17 00:17:31;;;;;;;18.30;10.48;;;;;;;19.38;97.68;94542.44;5068470;28;20068;-66
2021/07/17 00:19:58;;;;;;;20.75;9.82;;;;;;;19.46;97.33;94544.38;5069989;28;20051;-66
2021/07/17 00:22:25;;;;;;;20.92;8.98;;;;;;;19.54;96.44;94551.63;5069614;28;20044;-66
2021/07/17 00:24:52;;;;;;;14.07;9.65;;;;;;;19.54;95.08;94548.97;5068510;28;20036;-66
2021/07/17 00:27:19;;;;;;;12.77;8.98;;;;;;;19.47;94.46;94543.31;5068495;28;20051;-66
2021/07/17 00:29:45;;;;;;;16.02;10.00;;;;;;;19.51;93.69;94544.28;5068254;28;20033;-66
2021/07/17 00:32:12;;;;;;;15.38;9.98;;;;;;;19.49;92.84;94551.72;5067089;28;22372;-66
2021/07/17 00:34:39;;;;;;;11.60;9.77;;;;;;;19.51;92.52;94549.56;5067324;28;20109;-66
2021/07/17 00:37:06;;;;;;;10.40;9.27;;;;;;;19.52;93.00;94545.84;5068450;28;20072;-66
2021/07/17 00:39:33;;;;;;;13.63;10.32;;;;;;;19.56;93.41;94546.03;5067141;28;20038;-66
2021/07/17 00:42:00;;;;;;;16.63;9.27;;;;;;;19.59;93.21;94540.97;5070545;28;20051;-66
2021/07/17 00:44:27;;;;;;;12.63;9.10;;;;;;;19.65;92.15;94539.78;5070556;28;20555;-66
2021/07/17 00:46:56;;;;;;;12.27;8.55;;;;;;;19.68;91.73;94541.06;5067694;28;20402;-67
2021/07/17 00:49:27;;;;;;;10.00;8.57;;;;;;;19.67;92.00;94552.69;5067722;28;20033;-66
2021/07/17 00:51:54;;;;;;;13.38;8.75;;;;;;;19.64;92.12;94554.06;5065229;28;20163;-66
2021/07/17 00:54:26;;;;;;;13.93;9.00;;;;;;;19.58;91.87;94555.22;5068009;28;20535;-66
2021/07/17 00:56:53;;;;;;;20.15;10.52;;;;;;;19.46;92.55;94557.56;5066981;28;20043;-66
2021/07/17 00:59:25;;;;;;;15.93;9.55;;;;;;;19.52;90.77;94556.41;5066234;28;20058;-66
2021/07/17 01:01:53;;;;;;;13.65;9.45;;;;;;;19.49;89.41;94541.16;5069171;28;20132;-66
2021/07/17 01:04:22;;;;;;;14.63;9.55;;;;;;;19.43;87.90;94542.34;5067585;28;20510;-66
2021/07/17 01:06:49;;;;;;;18.45;9.35;;;;;;;19.27;87.47;94528.63;5071082;28;20044;-65
2021/07/17 01:09:16;;;;;;;16.60;9.27;;;;;;;19.27;86.28;94529.41;5068128;28;20067;-66
2021/07/17 01:11:43;;;;;;;15.93;9.65;;;;;;;19.22;85.48;94532.13;5069580;28;20044;-66
2021/07/17 01:14:11;;;;;;;14.60;8.80;;;;;;;19.15;84.93;94539.66;5067827;28;20105;-66
2021/07/17 01:16:38;;;;;;;13.52;9.13;;;;;;;19.07;85.16;94535.06;5065784;28;20057;-66
2021/07/17 01:19:10;;;;;;;15.70;9.50;;;;;;;19.05;84.93;94532.72;5066881;28;20134;-66
2021/07/17 01:21:37;;;;;;;18.23;8.75;;;;;;;19.01;84.86;94515.09;5067640;28;20036;-65
2021/07/17 01:24:05;;;;;;;16.98;8.93;;;;;;;19.07;84.49;94525.28;5071214;28;20494;-68
2021/07/17 01:26:31;;;;;;;14.93;8.18;;;;;;;19.05;84.75;94524.00;5071338;28;20055;-66
2021/07/17 01:28:58;;;;;;;12.63;8.80;;;;;;;19.06;84.69;94522.94;5065970;28;20033;-66
2021/07/17 01:31:27;;;;;;;21.67;9.93;;;;;;;19.07;84.13;94513.97;5071780;28;20040;-66
2021/07/17 01:33:54;;;;;;;10.80;8.90;;;;;;;19.07;84.52;94514.72;5066442;28;20048;-66
2021/07/17 01:36:21;;;;;;;15.20;8.35;;;;;;;18.93;84.78;94515.78;5068200;28;20417;-65
2021/07/17 01:38:48;;;;;;;20.20;11.38;;;;;;;18.88;84.69;94509.50;5070588;28;20037;-66
2021/07/17 01:41:17;;;;;;;13.80;9.50;;;;;;;18.91;84.28;94521.34;5066385;28;20036;-66
2021/07/17 01:43:44;;;;;;;15.20;9.88;;;;;;;18.81;85.21;94511.75;5066440;28;20032;-67
2021/07/17 01:46:11;;;;;;;16.98;9.40;;;;;;;18.78;85.29;94512.31;5069921;28;20049;-66
2021/07/17 01:48:38;;;;;;;14.20;9.43;;;;;;;18.87;85.06;94515.88;5064173;28;20037;-66
2021/07/17 01:51:04;;;;;;;16.88;9.63;;;;;;;18.78;85.42;94495.69;5068315;28;20034;-67
2021/07/17 01:53:31;;;;;;;20.63;9.77;;;;;;;18.83;85.24;94514.09;5068316;28;20040;-66
2021/07/17 01:55:58;;;;;;;11.43;8.90;;;;;;;18.81;84.63;94500.38;5068515;28;20051;-65
2021/07/17 01:58:25;;;;;;;15.75;9.45;;;;;;;18.61;85.74;94504.16;5067031;28;20041;-66
2021/07/17 02:00:52;;;;;;;15.10;8.82;;;;;;;18.41;86.58;94487.59;5067001;28;20056;-65
2021/07/17 02:03:19;;;;;;;18.05;9.18;;;;;;;18.44;86.18;94502.84;5065896;28;20442;-65
2021/07/17 02:05:45;;;;;;;17.00;9.20;;;;;;;18.33;86.85;94490.91;5065406;28;20498;-65
2021/07/17 02:08:13;;;;;;;13.13;9.80;;;;;;;18.26;86.94;94499.16;5068801;28;20529;-66
2021/07/17 02:10:40;;;;;;;10.85;8.95;;;;;;;18.19;86.96;94511.16;5067149;28;20039;-65
2021/07/17 02:13:10;;;;;;;9.82;8.18;;;;;;;18.21;86.47;94503.72;5069568;28;20359;-65
2021/07/17 02:15:48;;;;;;;15.00;8.93;;;;;;;18.19;87.18;94500.59;5073608;28;20047;-65
2021/07/17 02:18:25;;;;;;;11.30;8.30;;;;;;;18.11;86.98;94489.63;5072564;28;20102;-66
2021/07/17 02:20:52;;;;;;;12.25;8.13;;;;;;;18.10;88.31;94498.59;5072144;28;20040;-65
2021/07/17 02:23:19;;;;;;;14.00;9.48;;;;;;;17.83;91.24;94503.72;5072459;28;20036;-65
2021/07/17 02:25:47;;;;;;;22.92;12.00;;;;;;;17.71;92.97;94497.00;5071736;28;20044;-65
2021/07/17 02:28:14;;;;;;;16.80;10.60;;;;;;;17.74;93.76;94496.44;5067901;28;20037;-66
2021/07/17 02:30:40;;;;;;;15.40;11.82;;;;;;;17.76;94.67;94493.53;5071344;28;20048;-65
2021/07/17 02:33:07;;;;;;;16.20;11.45;;;;;;;17.76;95.76;94496.94;5073926;28;20044;-65
2021/07/17 02:35:34;;;;;;;22.48;14.02;;;;;;;17.67;97.62;94490.72;5071086;28;20040;-66
2021/07/17 02:38:01;;;;;;;20.05;13.32;;;;;;;17.59;98.80;94478.19;5071991;28;20048;-65
2021/07/17 02:40:28;;;;;;;19.58;13.07;;;;;;;17.61;98.80;94476.06;5071556;28;20041;-65
2021/07/17 02:42:55;;;;;;;16.35;12.75;;;;;;;17.70;98.95;94490.16;5070391;28;20047;-65
2021/07/17 02:45:21;;;;;;;16.08;13.35;;;;;;;17.70;98.27;94479.63;5070013;28;20041;-65
2021/07/17 02:47:48;;;;;;;18.25;12.50;;;;;;;17.77;98.87;94493.25;5069078;28;20055;-65
2021/07/17 02:50:16;;;;;;;18.40;14.20;;;;;;;17.66;100.00;94483.09;5071410;28;20040;-66
2021/07/17 02:52:43;;;;;;;18.92;13.75;;;;;;;17.60;100.00;94477.13;5069170;28;20043;-66
2021/07/17 02:55:10;;;;;;;20.92;14.48;;;;;;;17.50;100.00;94479.88;5071467;28;20059;-65
2021/07/17 02:57:37;;;;;;;19.67;14.18;;;;;;;17.58;100.00;94481.91;5068580;28;20044;-65
2021/07/17 03:00:06;;;;;;;18.75;14.32;;;;;;;17.60;100.00;94474.50;5068432;28;20040;-65
2021/07/17 03:02:33;;;;;;;18.50;13.57;;;;;;;17.68;100.00;94473.88;5072848;28;20052;-66
2021/07/17 03:05:00;;;;;;;24.85;15.32;;;;;;;17.82;99.56;94481.84;5070511;28;20111;-66
2021/07/17 03:07:27;;;;;;;25.58;15.32;;;;;;;17.78;99.07;94481.63;5070226;28;20135;-66
2021/07/17 03:09:53;;;;;;;25.17;14.68;;;;;;;17.74;99.37;94485.91;5070221;28;20050;-66
2021/07/17 03:12:20;;;;;;;31.52;15.48;;;;;;;17.64;98.83;94462.31;5068483;28;20044;-66
2021/07/17 03:14:47;;;;;;;27.92;14.05;;;;;;;17.77;98.32;94482.72;5072666;28;20048;-66
2021/07/17 03:17:14;;;;;;;28.05;15.57;;;;;;;17.74;98.10;94479.84;5069727;28;20051;-66
2021/07/17 03:19:41;;;;;;;22.88;15.27;;;;;;;17.79;97.32;94482.44;5069139;28;20047;-66
2021/07/17 03:22:09;;;;;;;25.83;14.05;;;;;;;17.83;96.80;94488.69;5066561;28;20532;-66
2021/07/17 03:24:36;;;;;;;30.67;15.65;;;;;;;17.84;96.54;94484.19;5068742;28;20040;-66
2021/07/17 03:27:03;;;;;;;24.00;13.43;;;;;;;17.84;96.81;94484.19;5067709;28;20418;-65
2021/07/17 03:29:30;;;;;;;27.45;14.35;;;;;;;17.87;96.42;94487.06;5067244;28;20033;-66
2021/07/17 03:31:57;;;;;;;22.23;14.60;;;;;;;17.91;96.36;94484.66;5067936;28;20067;-66
2021/07/17 03:34:24;;;;;;;16.85;12.88;;;;;;;17.88;97.48;94490.47;5067671;28;20040;-66
2021/07/17 03:36:51;;;;;;;18.90;14.43;;;;;;;17.94;97.37;94482.22;5066642;28;20052;-66
2021/07/17 03:39:18;;;;;;;19.60;12.80;;;;;;;17.87;97.44;94473.13;5067342;28;20051;-67
2021/07/17 03:41:45;;;;;;;21.65;13.82;;;;;;;17.95;97.57;94475.91;5067863;28;20032;-66
2021/07/17 03:44:12;;;;;;;38.63;15.13;;;;;;;18.03;97.56;94487.63;5067794;28;20045;-66
2021/07/17 03:46:39;;;;;;;26.05;13.20;;;;;;;18.07;97.60;94482.59;5067679;28;20052;-66
2021/07/17 03:49:06;;;;;;;26.30;14.48;;;;;;;18.05;97.74;94479.44;5066805;28;20074;-67
2021/07/17 03:51:33;;;;;;;25.75;14.52;;;;;;;18.03;97.51;94477.09;5067916;28;20394;-67
2021/07/17 03:54:00;;;;;;;16.75;12.93;;;;;;;18.08;96.84;94474.41;5066684;28;20042;-66
2021/07/17 03:56:26;;;;;;;17.52;10.25;;;;;;;18.24;96.05;94487.31;5065148;28;20052;-66
2021/07/17 03:58:53;;;;;;;20.17;11.93;;;;;;;18.26;95.07;94482.56;5066296;28;20846;-66
2021/07/17 04:01:20;;;;;;;13.80;9.98;;;;;;;18.35;94.66;94494.03;5065663;28;20043;-66
2021/07/17 04:03:50;;;;;;;20.35;9.73;;;;;;;18.43;94.47;94485.44;5066230;28;20167;-66
2021/07/17 04:06:17;;;;;;;21.88;10.82;;;;;;;18.48;94.00;94487.22;5067019;28;20044;-66
2021/07/17 04:08:44;;;;;;;14.25;9.23;;;;;;;18.47;93.83;94481.16;5067283;28;20060;-66
2021/07/17 04:11:10;;;;;;;19.52;10.15;;;;;;;18.47;94.20;94481.16;5066515;28;20048;-67
2021/07/17 04:13:37;;;;;;;16.42;9.60;;;;;;;18.53;93.73;94474.75;5067243;28;20044;-66
2021/07/17 04:16:04;;;;;;;22.77;10.25;;;;;;;18.66;93.65;94477.69;5066827;28;20106;-66
2021/07/17 04:18:31;;;;;;;13.75;9.75;;;;;;;18.69;93.36;94477.09;5066634;28;20046;-67
2021/07/17 04:20:58;;;;;;;16.70;10.60;;;;;;;18.81;93.43;94477.44;5066691;28;20036;-66
2021/07/17 04:23:26;;;;;;;16.13;9.55;;;;;;;18.86;93.36;94481.88;5066743;28;20048;-67
2021/07/17 04:25:53;;;;;;;18.15;10.10;;;;;;;18.81;93.94;94472.16;5065522;28;20044;-67
2021/07/17 04:28:20;;;;;;;14.95;10.77;;;;;;;18.70;94.76;94479.44;5065580;28;20540;-66
2021/07/17 04:30:47;;;;;;;16.45;9.68;;;;;;;18.73;95.42;94462.28;5066582;28;20044;-66
2021/07/17 04:33:14;;;;;;;12.57;9.90;;;;;;;18.92;94.67;94475.41;5066036;28;20563;-66
2021/07/17 04:35:41;;;;;;;16.40;10.15;;;;;;;18.94;94.35;94472.47;5065969;28;20139;-66
2021/07/17 04:38:08;;;;;;;20.27;10.73;;;;;;;18.96;94.20;94471.13;5064942;28;20040;-66
2021/07/17 04:40:35;;;;;;;16.85;10.43;;;;;;;19.07;94.38;94467.22;5066468;28;20044;-67
2021/07/17 04:43:02;;;;;;;18.73;11.40;;;;;;;19.10;93.57;94468.47;5066333;28;20040;-67
2021/07/17 04:45:29;;;;;;;17.00;11.23;;;;;;;19.17;93.94;94468.09;5067448;28;20045;-66
2021/07/17 04:47:56;;;;;;;16.13;10.98;;;;;;;19.31;93.70;94470.75;5067858;28;20430;-66
2021/07/17 04:50:23;;;;;;;19.20;11.00;;;;;;;19.41;93.51;94470.53;5065122;28;20044;-66
2021/07/17 04:52:49;;;;;;;16.10;11.13;;;;;;;19.45;93.07;94477.56;5065785;28;20808;-66
2021/07/17 04:55:17;;;;;;;14.23;9.75;;;;;;;19.55;91.81;94475.78;5066157;28;20045;-67
2021/07/17 04:57:43;;;;;;;18.70;10.18;;;;;;;19.61;91.44;94478.03;5065608;28;20082;-67
2021/07/17 05:00:11;;;;;;;16.45;9.32;;;;;;;19.67;91.75;94479.50;5067163;28;20407;-67
2021/07/17 05:02:48;;;;;;;13.95;10.25;;;;;;;19.80;91.54;94479.78;5065927;28;20058;-68
2021/07/17 05:05:19;;;;;;;17.98;10.10;;;;;;;19.85;91.71;94471.75;5065897;28;20045;-68
2021/07/17 05:07:48;;;;;;;17.52;9.45;;;;;;;19.96;91.23;94475.72;5065117;28;20040;-68
2021/07/17 05:10:17;;;;;;;19.83;10.60;;;;;;;20.05;91.64;94484.50;5065803;28;20032;-68
2021/07/17 05:12:44;;;;;;;11.48;9.05;;;;;;;20.10;89.95;94480.22;5065639;28;20043;-67
2021/07/17 05:15:15;;;;;;;13.23;9.02;;;;;;;20.20;89.50;94479.97;5064511;28;20792;-67
2021/07/17 05:17:43;;;;;;;16.52;9.93;;;;;;;20.24;89.22;94470.38;5064734;28;20136;-68
2021/07/17 05:20:11;;;;;;;11.73;9.18;;;;;;;20.19;88.15;94451.97;5065497;28;20044;-67
2021/07/17 05:22:38;;;;;;;13.48;9.15;;;;;;;20.37;88.21;94464.22;5065619;28;20059;-67
2021/07/17 05:25:07;;;;;;;14.68;8.70;;;;;;;20.56;87.57;94457.94;5065595;28;20037;-68
2021/07/17 05:27:34;;;;;;;14.55;8.70;;;;;;;20.63;86.32;94455.69;5063039;28;20502;-67
2021/07/17 05:30:03;;;;;;;14.07;8.85;;;;;;;20.69;85.59;94459.78;5065442;28;20458;-67
2021/07/17 05:32:29;;;;;;;19.10;9.38;;;;;;;20.83;85.01;94456.25;5064972;28;20036;-67
2021/07/17 05:34:56;;;;;;;14.48;9.57;;;;;;;20.99;84.36;94462.69;5065826;28;20051;-68
2021/07/17 05:37:25;;;;;;;14.15;8.93;;;;;;;21.06;83.53;94452.44;5065530;28;20498;-69
2021/07/17 05:39:52;;;;;;;12.18;8.32;;;;;;;21.20;83.02;94453.13;5065840;28;20064;-68
2021/07/17 05:42:19;;;;;;;16.42;7.75;;;;;;;21.31;81.99;94458.16;5064377;28;20442;-68
2021/07/17 05:44:46;;;;;;;18.25;7.82;;;;;;;21.48;80.15;94463.53;5065766;28;20047;-67
2021/07/17 05:47:13;;;;;;;15.48;7.07;;;;;;;21.63;78.95;94458.88;5069494;28;20040;-68
2021/07/17 05:49:39;;;;;;;16.88;6.45;;;;;;;21.80;77.50;94464.19;5071048;28;20498;-68
2021/07/17 05:52:06;;;;;;;15.80;7.32;;;;;;;22.00;76.31;94467.31;5069221;28;20057;-68
2021/07/17 05:54:33;;;;;;;20.05;6.45;;;;;;;22.13;74.38;94461.09;5068717;28;20494;-68
2021/07/17 05:57:01;;;;;;;10.20;5.50;;;;;;;22.35;72.15;94462.03;5069453;28;20047;-67
2021/07/17 05:59:28;;;;;;;6.15;4.68;;;;;;;22.42;68.26;94462.31;5069267;28;20498;-67
2021/07/17 06:01:55;;;;;;;8.32;5.07;;;;;;;22.57;68.90;94459.19;5069230;28;20111;-67
2021/07/17 06:04:23;;;;;;;19.20;4.80;;;;;;;22.66;68.48;94451.97;5069662;28;20041;-67
2021/07/17 06:06:50;;;;;;;12.85;5.07;;;;;;;22.93;67.11;94452.66;5068927;28;20054;-67
2021/07/17 06:09:16;;;;;;;9.85;3.97;;;;;;;23.01;62.96;94457.19;5069513;28;20052;-67
2021/07/17 06:11:43;;;;;;;10.02;3.78;;;;;;;23.14;59.69;94451.97;5069003;28;20036;-67
2021/07/17 06:14:10;;;;;;;11.05;3.63;;;;;;;23.14;58.49;94444.00;5069109;28;20037;-67
2021/07/17 06:16:37;;;;;;;9.77;3.47;;;;;;;23.31;57.48;94443.94;5070054;28;20777;-67
2021/07/17 06:19:04;;;;;;;13.20;3.78;;;;;;;23.47;57.59;94447.59;5068774;28;20048;-66
2021/07/17 06:21:31;;;;;;;13.77;4.30;;;;;;;23.63;56.51;94449.69;5068504;28;20048;-67
2021/07/17 06:23:59;;;;;;;16.13;4.15;;;;;;;23.69;57.43;94439.66;5068239;28;20044;-67
2021/07/17 06:26:25;;;;;;;8.05;4.35;;;;;;;23.74;55.48;94424.28;5066151;28;20055;-68
2021/07/17 06:28:52;;;;;;;10.57;3.85;;;;;;;23.88;56.16;94441.88;5065411;28;20056;-65
2021/07/17 06:31:19;;;;;;;10.80;3.30;;;;;;;23.94;53.57;94440.59;5066644;28;20113;-65
2021/07/17 06:33:47;;;;;;;8.07;3.13;;;;;;;24.00;50.61;94439.28;5066629;28;20036;-65
2021/07/17 06:36:15;;;;;;;7.00;3.03;;;;;;;24.18;50.50;94438.06;5067464;28;20147;-65
2021/07/17 06:38:43;;;;;;;11.38;3.30;;;;;;;24.30;51.12;94428.56;5068058;28;20037;-65
2021/07/17 06:41:14;;;;;;;7.18;2.60;;;;;;;24.43;49.23;94422.94;5067360;28;20111;-65
2021/07/17 06:43:41;;;;;;;5.50;3.08;;;;;;;24.46;48.92;94420.72;5067802;28;20047;-66
2021/07/17 06:46:08;;;;;;;9.65;2.78;;;;;;;24.61;48.36;94423.56;5068421;28;20036;-66
2021/07/17 06:48:35;;;;;;;8.88;3.30;;;;;;;24.82;47.69;94427.28;5067463;28;20040;-66
2021/07/17 06:51:02;;;;;;;9.93;3.58;;;;;;;24.93;47.42;94420.41;5068182;28;20045;-66
2021/07/17 06:53:34;;;;;;;9.90;3.45;;;;;;;25.08;46.40;94424.28;5067032;28;20483;-65
2021/07/17 06:56:01;;;;;;;12.07;2.95;;;;;;;25.25;45.63;94424.09;5067786;28;20048;-68
2021/07/17 06:58:28;;;;;;;12.73;3.20;;;;;;;25.40;45.23;94424.53;5067089;28;20037;-68
2021/07/17 07:00:55;;;;;;;14.75;3.03;;;;;;;25.36;45.07;94406.53;5068193;28;20044;-68
2021/07/17 07:03:22;;;;;;;8.60;3.03;;;;;;;25.64;45.66;94413.84;5068168;28;20075;-68
2021/07/17 07:05:49;;;;;;;15.70;2.78;;;;;;;25.73;43.32;94417.16;5067668;28;20036;-68
2021/07/17 07:08:16;;;;;;;10.15;3.67;;;;;;;25.82;42.98;94413.56;5068463;28;20054;-68
2021/07/17 07:10:43;;;;;;;9.35;3.13;;;;;;;25.92;44.09;94424.53;5067245;28;20040;-68
2021/07/17 07:13:11;;;;;;;6.40;3.00;;;;;;;25.87;44.47;94410.66;5067680;28;20066;-68
2021/07/17 07:15:38;;;;;;;12.43;3.55;;;;;;;26.19;44.20;94408.13;5066522;28;20067;-68
2021/07/17 07:18:06;;;;;;;9.88;2.75;;;;;;;26.32;42.96;94417.63;5066740;28;20048;-66
2021/07/17 07:20:34;;;;;;;11.45;3.25;;;;;;;26.41;43.28;94407.56;5067689;28;20037;-68
2021/07/17 07:23:02;;;;;;;14.75;3.67;;;;;;;26.65;43.28;94408.56;5067183;28;20086;-68
2021/07/17 07:25:29;;;;;;;8.00;2.63;;;;;;;26.71;42.04;94401.88;5066843;28;20537;-68
2021/07/17 07:27:56;;;;;;;8.50;2.95;;;;;;;26.72;42.32;94408.75;5066309;28;20037;-67
2021/07/17 07:30:23;;;;;;;7.47;2.88;;;;;;;26.84;42.32;94408.66;5065261;28;20051;-67
2021/07/17 07:32:51;;;;;;;9.05;3.92;;;;;;;27.03;41.78;94412.56;5065872;28;20124;-67
2021/07/17 07:35:19;;;;;;;9.85;2.40;;;;;;;27.04;40.05;94411.44;5066318;28;20540;-67
2021/07/17 07:37:46;;;;;;;8.93;2.85;;;;;;;27.14;41.23;94404.78;5066519;28;20494;-68
2021/07/17 07:40:15;;;;;;;19.30;3.58;;;;;;;27.38;40.04;94407.28;5065646;28;20044;-68
2021/07/17 07:42:42;;;;;;;7.57;2.75;;;;;;;27.36;39.30;94414.09;5066313;28;20055;-68
2021/07/17 07:45:10;;;;;;;10.60;3.25;;;;;;;27.44;38.68;94421.13;5065322;28;20459;-67
2021/07/17 07:47:37;;;;;;;24.40;3.13;;;;;;;27.56;39.51;94406.91;5066070;28;20051;-66
2021/07/17 07:50:06;;;;;;;12.07;3.78;;;;;;;27.73;38.17;94413.72;5065854;28;20542;-66
2021/07/17 07:52:33;;;;;;;5.55;3.00;;;;;;;27.66;38.45;94425.09;5065892;28;20037;-65
2021/07/17 07:55:00;;;;;;;12.70;3.08;;;;;;;27.78;38.20;94410.78;5065630;28;20040;-67
2021/07/17 07:57:27;;;;;;;9.43;2.33;;;;;;;28.00;39.17;94418.16;5064636;28;20059;-68
2021/07/17 07:59:54;;;;;;;13.73;2.85;;;;;;;28.00;37.72;94412.81;5065283;28;20032;-67
2021/07/17 08:02:21;;;;;;;9.80;2.72;;;;;;;28.26;37.58;94414.06;5066805;28;20047;-67
2021/07/17 08:04:48;;;;;;;13.57;3.05;;;;;;;28.40;39.09;94403.63;5065286;28;20123;-67
2021/07/17 08:07:14;;;;;;;15.25;5.55;;;;;;;28.70;38.31;94416.44;5066175;28;20049;-67
2021/07/17 08:09:41;;;;;;;14.13;3.23;;;;;;;28.74;35.80;94406.53;5065735;28;20048;-67
2021/07/17 08:12:08;;;;;;;17.63;2.88;;;;;;;28.73;35.10;94404.97;5068185;28;20772;-67
2021/07/17 08:14:35;;;;;;;7.07;2.65;;;;;;;28.67;36.66;94398.38;5062077;28;20429;-67
2021/07/17 08:17:04;;;;;;;11.18;3.05;;;;;;;28.83;36.59;94400.16;5067602;28;20048;-67
2021/07/17 08:19:31;;;;;;;7.80;2.97;;;;;;;28.86;35.67;94391.41;5069341;28;20044;-67
2021/07/17 08:21:58;;;;;;;9.20;2.53;;;;;;;29.26;35.93;94408.88;5070100;28;20513;-68
2021/07/17 08:24:25;;;;;;;7.93;2.33;;;;;;;29.35;34.73;94412.09;5066369;28;20127;-67
2021/07/17 08:26:52;;;;;;;7.30;2.08;;;;;;;29.45;36.17;94397.28;5067110;28;20036;-67
2021/07/17 08:29:19;;;;;;;17.50;3.30;;;;;;;29.32;35.23;94397.50;5064941;28;20040;-68
2021/07/17 08:31:46;;;;;;;7.82;2.40;;;;;;;29.22;36.11;94395.44;5068960;28;20037;-68
2021/07/17 08:34:13;;;;;;;6.57;2.58;;;;;;;29.47;35.55;94385.06;5065625;28;20079;-68
2021/07/17 08:36:40;;;;;;;13.45;2.58;;;;;;;29.81;34.71;94405.84;5066342;28;20051;-68
2021/07/17 08:39:06;;;;;;;15.57;2.70;;;;;;;29.49;33.33;94385.47;5065525;28;20422;-68
2021/07/17 08:41:34;;;;;;;10.45;2.63;;;;;;;29.85;34.96;94390.56;5062778;28;20140;-68
2021/07/17 08:44:02;;;;;;;11.95;2.70;;;;;;;30.23;33.83;94392.16;5063134;28;20056;-69
2021/07/17 08:46:29;;;;;;;12.82;2.60;;;;;;;30.37;34.00;94393.47;5061974;28;20047;-68
2021/07/17 08:48:57;;;;;;;10.43;2.60;;;;;;;30.72;32.31;94384.19;5060951;28;20048;-67
2021/07/17 08:51:24;;;;;;;25.70;4.15;;;;;;;30.71;33.18;94390.72;5062097;28;21389;-67
2021/07/17 08:53:53;;;;;;;10.93;2.47;;;;;;;30.38;32.04;94378.88;5063581;28;20041;-68
2021/07/17 08:56:20;;;;;;;46.78;3.90;;;;;;;30.13;30.53;94382.06;5063952;28;20063;-67
2021/07/17 08:58:48;;;;;;;10.70;2.50;;;;;;;29.93;31.65;94371.50;5063199;28;20189;-67
2021/07/17 09:01:16;;;;;;;8.73;2.70;;;;;;;29.86;32.59;94370.66;5063192;28;20053;-67
2021/07/17 09:03:43;;;;;;;20.50;3.65;;;;;;;30.10;32.71;94380.88;5060438;28;20040;-67
2021/07/17 09:06:11;;;;;;;8.13;1.95;;;;;;;30.16;33.04;94377.88;5064073;28;20549;-67
2021/07/17 09:08:38;;;;;;;13.70;2.85;;;;;;;30.27;32.34;94374.16;5062607;28;20049;-68
2021/07/17 09:11:05;;;;;;;8.13;2.63;;;;;;;30.62;32.99;94372.97;5064387;28;20052;-67
2021/07/17 09:13:35;;;;;;;21.65;2.72;;;;;;;30.78;30.84;94369.28;5061875;28;20040;-68
2021/07/17 09:16:08;;;;;;;10.27;2.75;;;;;;;30.56;31.63;94371.78;5063257;28;20137;-67
2021/07/17 09:18:48;;;;;;;11.07;2.15;;;;;;;30.22;32.48;94371.81;5062763;28;20462;-67
2021/07/17 09:21:21;;;;;;;9.52;2.90;;;;;;;30.36;31.93;94365.06;5062938;28;20048;-68
2021/07/17 09:23:53;;;;;;;12.98;2.70;;;;;;;30.55;33.02;94378.28;5063360;28;20484;-67
2021/07/17 09:26:25;;;;;;;9.07;2.47;;;;;;;31.02;32.56;94376.78;5062472;28;20056;-67
2021/07/17 09:28:56;;;;;;;8.32;2.30;;;;;;;31.13;30.96;94368.03;5060956;28;20045;-67
2021/07/17 09:31:25;;;;;;;10.98;2.60;;;;;;;31.38;31.29;94360.13;5060942;28;20048;-67
2021/07/17 09:34:02;;;;;;;9.15;2.38;;;;;;;31.57;29.68;94351.81;5061958;28;20055;-67
2021/07/17 09:36:29;;;;;;;12.82;2.22;;;;;;;31.87;30.27;94355.38;5062277;28;20056;-67
2021/07/17 09:38:56;;;;;;;6.60;2.33;;;;;;;32.00;32.04;94343.13;5064324;28;20453;-67
2021/07/17 09:41:23;;;;;;;7.32;2.97;;;;;;;31.92;29.16;94357.72;5064844;28;20131;-67
2021/07/17 09:44:01;;;;;;;9.18;2.67;;;;;;;32.20;30.07;94349.75;5062114;28;20041;-67
2021/07/17 09:46:30;;;;;;;7.60;2.58;;;;;;;32.06;29.48;94341.63;5064786;28;20052;-67
2021/07/17 09:49:01;;;;;;;11.52;2.80;;;;;;;32.18;28.75;94349.34;5061229;28;20043;-67
2021/07/17 09:51:33;;;;;;;18.35;2.60;;;;;;;32.33;29.47;94346.69;5062650;28;20065;-67
2021/07/17 09:54:06;;;;;;;12.43;2.88;;;;;;;32.81;30.02;94330.22;5062706;28;20060;-67
2021/07/17 09:56:36;;;;;;;11.45;2.72;;;;;;;33.06;29.21;94329.41;5063568;28;20585;-67
2021/07/17 09:59:05;;;;;;;11.95;3.35;;;;;;;33.10;28.41;94330.94;5064328;28;20048;-67
2021/07/17 10:01:33;;;;;;;13.65;2.50;;;;;;;33.40;28.53;94337.06;5061247;28;20060;-67
2021/07/17 10:04:12;;;;;;;10.25;2.70;;;;;;;33.74;27.75;94317.72;5062366;28;20600;-67
2021/07/17 10:06:43;;;;;;;11.07;2.20;;;;;;;33.23;26.68;94327.88;5062255;28;20422;-67
2021/07/17 10:09:16;;;;;;;11.02;2.10;;;;;;;32.97;27.07;94332.50;5062744;28;20051;-67
2021/07/17 10:11:50;;;;;;;4.00;1.88;;;;;;;32.74;27.48;94314.03;5054757;28;20063;-66
2021/07/17 10:14:24;;;;;;;10.60;3.00;;;;;;;32.64;26.59;94328.28;5056590;28;20123;-66
2021/07/17 10:16:54;;;;;;;10.18;2.17;;;;;;;32.56;27.08;94324.78;5060837;28;20056;-67
2021/07/17 10:19:28;;;;;;;9.55;2.25;;;;;;;32.47;26.90;94317.06;5058616;28;20056;-66
2021/07/17 10:21:55;;;;;;;10.18;2.97;;;;;;;32.98;26.37;94322.50;5061846;28;20051;-66
2021/07/17 10:24:25;;;;;;;13.35;2.05;;;;;;;32.72;25.84;94324.44;5060926;28;20060;-67
2021/07/17 10:26:53;;;;;;;7.47;2.75;;;;;;;33.00;26.40;94325.56;5063714;28;20058;-67
2021/07/17 10:29:21;;;;;;;12.25;2.45;;;;;;;33.26;28.34;94322.47;5060733;28;20048;-67
2021/07/17 10:31:49;;;;;;;5.82;2.15;;;;;;;33.48;27.54;94319.72;5064134;28;20044;-67
2021/07/17 10:34:17;;;;;;;13.55;2.80;;;;;;;33.31;27.33;94323.97;5067767;28;20068;-68
2021/07/17 10:36:50;;;;;;;9.82;3.33;;;;;;;33.36;25.63;94330.94;5067899;28;20044;-67
2021/07/17 10:39:22;;;;;;;9.05;2.00;;;;;;;33.70;26.36;94318.50;5067619;28;20044;-67
2021/07/17 10:41:50;;;;;;;11.00;2.50;;;;;;;33.72;25.17;94312.69;5067063;28;20122;-67
2021/07/17 10:44:37;;;;;;;6.50;2.25;;;;;;;34.24;26.05;94320.19;5068789;28;20045;-67
2021/07/17 10:47:08;;;;;;;10.25;1.98;;;;;;;34.59;25.38;94321.09;5067686;28;20044;-67
2021/07/17 10:49:50;;;;;;;5.78;2.33;;;;;;;35.04;25.12;94302.19;5066865;28;20403;-67
2021/07/17 10:52:35;;;;;;;8.52;2.53;;;;;;;35.01;24.94;94308.41;5067492;28;20767;-67
2021/07/17 10:55:37;;;;;;;9.68;2.60;;;;;;;34.98;23.80;94292.97;5066632;28;20033;-67
2021/07/17 10:58:10;;;;;;;34.10;4.60;;;;;;;34.50;28.93;94307.25;5099356;28;20058;-66
2021/07/17 11:00:49;;;;;;;9.77;3.90;;;;;;;34.87;31.08;94301.19;5067571;28;20044;-67
2021/07/17 11:03:16;;;;;;;7.55;3.90;;;;;;;34.57;30.51;94302.56;5067067;28;20043;-67
2021/07/17 11:05:43;;;;;;;12.10;3.83;;;;;;;34.51;31.10;94303.41;5067333;28;20068;-67
2021/07/17 11:08:35;;;;;;;15.32;4.35;;;;;;;34.88;30.87;94289.22;5066614;28;20523;-67
2021/07/17 11:11:28;;;;;;;9.90;3.05;;;;;;;35.13;31.20;94283.56;5064906;28;20445;-66
2021/07/17 11:14:05;;;;;;;8.43;3.20;;;;;;;34.79;29.29;94284.28;5065334;28;20048;-67
2021/07/17 11:16:40;;;;;;;11.15;3.92;;;;;;;34.68;29.38;94297.06;5065578;28;20043;-67
2021/07/17 11:19:13;;;;;;;10.75;3.50;;;;;;;34.91;31.47;94282.22;5066322;28;20047;-67
2021/07/17 11:21:40;;;;;;;13.20;3.45;;;;;;;34.63;29.49;94289.41;5066868;28;20154;-67
2021/07/17 11:24:08;;;;;;;7.20;3.38;;;;;;;34.66;29.44;94275.84;5066000;28;20138;-67
2021/07/17 11:26:35;;;;;;;9.88;3.03;;;;;;;34.62;29.32;94277.03;5066890;28;20060;-67
2021/07/17 11:29:05;;;;;;;9.07;3.08;;;;;;;35.41;27.50;94281.75;5064967;28;20036;-66